sensor_id;sensor_type;location;lat;lon;timestamp;pressure;altitude;pressure_sealevel;temperature;humidity
58771;BME280;44539;42.962;1.596;2023-01-10T07:26:40;98080.00;;;1.59;100.00
58771;BME280;44539;42.962;1.596;2023-01-10T07:29:05;98088.31;;;1.66;100.00
58771;BME280;44539;42.962;1.596;2023-01-10T07:31:31;98096.91;;;1.68;100.00
58771;BME280;44539;42.962;1.596;2023-01-10T07:33:56;98087.75;;;1.60;100.00
58771;BME280;44539;42.962;1.596;2023-01-10T07:36:22;98075.41;;;1.62;100.00
58771;BME280;44539;42.962;1.596;2023-01-10T07:38:47;98084.63;;;1.68;100.00
58771;BME280;44539;42.962;1.596;2023-01-10T07:41:13;98085.50;;;1.69;100.00
58771;BME280;44539;42.962;1.596;2023-01-10T07:43:38;98094.94;;;1.71;100.00
58771;BME280;44539;42.962;1.596;2023-01-10T07:46:05;98103.53;;;1.73;100.00
58771;BME280;44539;42.962;1.596;2023-01-10T07:48:37;98105.97;;;1.62;100.00
58771;BME280;44539;42.962;1.596;2023-01-10T07:51:04;98090.84;;;1.53;100.00
58771;BME280;44539;42.962;1.596;2023-01-10T07:53:30;98097.50;;;1.58;100.00
58771;BME280;44539;42.962;1.596;2023-01-10T07:56:02;98091.50;;;1.56;100.00
58771;BME280;44539;42.962;1.596;2023-01-10T07:58:28;98086.44;;;1.53;100.00
58771;BME280;44539;42.962;1.596;2023-01-10T08:01:00;98086.91;;;1.60;100.00
58771;BME280;44539;42.962;1.596;2023-01-10T08:03:26;98081.88;;;1.42;100.00
58771;BME280;44539;42.962;1.596;2023-01-10T08:06:03;98086.91;;;1.60;100.00
58771;BME280;44539;42.962;1.596;2023-01-10T08:08:29;98084.41;;;1.44;100.00
58771;BME280;44539;42.962;1.596;2023-01-10T08:10:55;98092.47;;;1.41;100.00
58771;BME280;44539;42.962;1.596;2023-01-10T08:13:22;98080.97;;;1.29;100.00
58771;BME280;44539;42.962;1.596;2023-01-10T08:15:47;98083.56;;;1.29;100.00
58771;BME280;44539;42.962;1.596;2023-01-10T08:18:18;98088.34;;;1.37;100.00
58771;BME280;44539;42.962;1.596;2023-01-10T08:20:44;98090.09;;;1.51;100.00
58771;BME280;44539;42.962;1.596;2023-01-10T08:23:12;98082.81;;;1.41;100.00
58771;BME280;44539;42.962;1.596;2023-01-10T08:25:38;98076.75;;;1.41;100.00
58771;BME280;44539;42.962;1.596;2023-01-10T08:28:03;98075.06;;;1.40;100.00
58771;BME280;44539;42.962;1.596;2023-01-10T08:30:29;98058.44;;;1.41;100.00
58771;BME280;44539;42.962;1.596;2023-01-10T08:32:54;98072.53;;;1.53;100.00
58771;BME280;44539;42.962;1.596;2023-01-10T08:35:20;98069.69;;;1.70;100.00
58771;BME280;44539;42.962;1.596;2023-01-10T08:37:45;98067.41;;;1.78;100.00
58771;BME280;44539;42.962;1.596;2023-01-10T08:40:11;98060.66;;;1.89;100.00
58771;BME280;44539;42.962;1.596;2023-01-10T08:42:37;98065.81;;;1.90;100.00
58771;BME280;44539;42.962;1.596;2023-01-10T08:45:02;98068.59;;;2.14;100.00
58771;BME280;44539;42.962;1.596;2023-01-10T08:47:28;98067.47;;;2.18;100.00
58771;BME280;44539;42.962;1.596;2023-01-10T08:49:54;98069.72;;;2.37;100.00
58771;BME280;44539;42.962;1.596;2023-01-10T08:52:19;98074.44;;;2.45;100.00
58771;BME280;44539;42.962;1.596;2023-01-10T08:54:45;98078.53;;;2.49;100.00
58771;BME280;44539;42.962;1.596;2023-01-10T08:57:10;98069.34;;;2.56;100.00
58771;BME280;44539;42.962;1.596;2023-01-10T08:59:35;98069.25;;;2.71;100.00
58771;BME280;44539;42.962;1.596;2023-01-10T09:02:01;98072.94;;;2.81;100.00
58771;BME280;44539;42.962;1.596;2023-01-10T09:04:28;98075.78;;;2.91;100.00
58771;BME280;44539;42.962;1.596;2023-01-10T09:06:54;98070.63;;;3.02;100.00
58771;BME280;44539;42.962;1.596;2023-01-10T09:09:20;98071.03;;;3.09;100.00
58771;BME280;44539;42.962;1.596;2023-01-10T09:11:46;98071.34;;;3.17;100.00
58771;BME280;44539;42.962;1.596;2023-01-10T09:14:11;98068.81;;;3.28;100.00
58771;BME280;44539;42.962;1.596;2023-01-10T09:16:36;98074.38;;;3.36;100.00
58771;BME280;44539;42.962;1.596;2023-01-10T09:19:02;98077.09;;;3.35;100.00
58771;BME280;44539;42.962;1.596;2023-01-10T09:21:28;98066.50;;;3.36;100.00
58771;BME280;44539;42.962;1.596;2023-01-10T09:23:53;98067.00;;;3.41;100.00
58771;BME280;44539;42.962;1.596;2023-01-10T09:26:19;98062.69;;;3.53;100.00
58771;BME280;44539;42.962;1.596;2023-01-10T09:28:44;98059.09;;;3.67;100.00
58771;BME280;44539;42.962;1.596;2023-01-10T09:31:09;98061.50;;;3.70;100.00
58771;BME280;44539;42.962;1.596;2023-01-10T09:33:37;98065.34;;;3.77;100.00
58771;BME280;44539;42.962;1.596;2023-01-10T09:36:05;98065.47;;;3.76;100.00
58771;BME280;44539;42.962;1.596;2023-01-10T09:38:32;98067.34;;;3.86;100.00
58771;BME280;44539;42.962;1.596;2023-01-10T09:46:37;98061.00;;;4.13;100.00
58771;BME280;44539;42.962;1.596;2023-01-10T09:52:01;98061.19;;;4.23;100.00
58771;BME280;44539;42.962;1.596;2023-01-10T09:54:38;98059.66;;;4.32;100.00
58771;BME280;44539;42.962;1.596;2023-01-10T09:57:13;98056.34;;;4.41;100.00
58771;BME280;44539;42.962;1.596;2023-01-10T09:59:40;98051.59;;;4.46;100.00
58771;BME280;44539;42.962;1.596;2023-01-10T10:07:23;98063.88;;;4.92;100.00
58771;BME280;44539;42.962;1.596;2023-01-10T10:09:48;98069.16;;;5.03;100.00
58771;BME280;44539;42.962;1.596;2023-01-10T10:35:01;98082.31;;;5.93;100.00
58771;BME280;44539;42.962;1.596;2023-01-10T10:37:32;98083.63;;;5.99;100.00
58771;BME280;44539;42.962;1.596;2023-01-10T10:40:04;98084.34;;;6.01;100.00
58771;BME280;44539;42.962;1.596;2023-01-10T10:42:37;98076.78;;;6.08;100.00
58771;BME280;44539;42.962;1.596;2023-01-10T10:45:17;98070.44;;;6.10;100.00
58771;BME280;44539;42.962;1.596;2023-01-10T10:47:48;98070.28;;;6.12;100.00
58771;BME280;44539;42.962;1.596;2023-01-10T10:50:27;98060.84;;;6.09;100.00
58771;BME280;44539;42.962;1.596;2023-01-10T10:52:55;98056.03;;;6.15;100.00
58771;BME280;44539;42.962;1.596;2023-01-10T10:55:33;98047.59;;;6.21;100.00
58771;BME280;44539;42.962;1.596;2023-01-10T10:57:59;98051.31;;;6.29;100.00
58771;BME280;44539;42.962;1.596;2023-01-10T11:00:26;98042.03;;;6.35;100.00
58771;BME280;44539;42.962;1.596;2023-01-10T11:05:40;98030.66;;;6.56;100.00
58771;BME280;44539;42.962;1.596;2023-01-10T11:08:09;98019.91;;;6.68;100.00
58771;BME280;44539;42.962;1.596;2023-01-10T11:10:39;98010.50;;;6.75;100.00
58771;BME280;44539;42.962;1.596;2023-01-10T11:13:27;98008.56;;;6.78;100.00
58771;BME280;44539;42.962;1.596;2023-01-10T11:15:55;98005.81;;;6.79;100.00
58771;BME280;44539;42.962;1.596;2023-01-10T11:18:23;98010.47;;;6.97;100.00
58771;BME280;44539;42.962;1.596;2023-01-10T11:25:55;97984.91;;;7.38;89.17
58771;BME280;44539;42.962;1.596;2023-01-10T11:28:25;97978.84;;;7.47;91.45
58771;BME280;44539;42.962;1.596;2023-01-10T11:30:53;97970.06;;;7.46;88.96
58771;BME280;44539;42.962;1.596;2023-01-10T11:33:27;97982.31;;;7.47;89.74
58771;BME280;44539;42.962;1.596;2023-01-10T11:35:59;97963.28;;;7.53;92.00
58771;BME280;44539;42.962;1.596;2023-01-10T11:38:26;97964.38;;;7.61;97.50
58771;BME280;44539;42.962;1.596;2023-01-10T11:45:56;97959.41;;;7.77;94.10
58771;BME280;44539;42.962;1.596;2023-01-10T11:48:24;97957.63;;;7.87;93.56
58771;BME280;44539;42.962;1.596;2023-01-10T11:50:53;97941.72;;;7.97;85.72
58771;BME280;44539;42.962;1.596;2023-01-10T11:55:57;97949.25;;;8.11;88.99
58771;BME280;44539;42.962;1.596;2023-01-10T11:58:22;97948.16;;;8.24;83.83
58771;BME280;44539;42.962;1.596;2023-01-10T12:00:48;97940.03;;;8.25;78.10
58771;BME280;44539;42.962;1.596;2023-01-10T12:03:46;97938.22;;;8.35;86.88
58771;BME280;44539;42.962;1.596;2023-01-10T12:06:16;97939.50;;;8.41;80.23
58771;BME280;44539;42.962;1.596;2023-01-10T12:08:42;97938.06;;;8.56;80.24
58771;BME280;44539;42.962;1.596;2023-01-10T12:13:48;97926.41;;;8.87;76.77
58771;BME280;44539;42.962;1.596;2023-01-10T12:16:18;97917.75;;;8.94;73.98
58771;BME280;44539;42.962;1.596;2023-01-10T12:18:47;97919.00;;;8.90;74.46
58771;BME280;44539;42.962;1.596;2023-01-10T12:21:14;97920.34;;;9.04;80.02
58771;BME280;44539;42.962;1.596;2023-01-10T12:23:42;97909.38;;;9.17;72.07
58771;BME280;44539;42.962;1.596;2023-01-10T12:26:12;97905.91;;;9.16;77.55
58771;BME280;44539;42.962;1.596;2023-01-10T12:28:49;97907.19;;;9.12;77.88
58771;BME280;44539;42.962;1.596;2023-01-10T12:31:22;97896.44;;;9.14;76.43
58771;BME280;44539;42.962;1.596;2023-01-10T12:33:53;97888.25;;;9.07;79.33
58771;BME280;44539;42.962;1.596;2023-01-10T12:39:05;97876.41;;;9.29;69.86
58771;BME280;44539;42.962;1.596;2023-01-10T12:44:41;97867.06;;;9.71;69.29
58771;BME280;44539;42.962;1.596;2023-01-10T12:52:36;97853.69;;;10.25;66.74
58771;BME280;44539;42.962;1.596;2023-01-10T12:55:12;97853.38;;;10.46;69.01
58771;BME280;44539;42.962;1.596;2023-01-10T12:57:40;97842.75;;;10.54;69.33
58771;BME280;44539;42.962;1.596;2023-01-10T13:00:17;97850.38;;;10.83;71.54
58771;BME280;44539;42.962;1.596;2023-01-10T13:02:46;97838.28;;;10.89;72.06
58771;BME280;44539;42.962;1.596;2023-01-10T13:05:18;97837.88;;;11.26;69.40
58771;BME280;44539;42.962;1.596;2023-01-10T13:07:44;97837.13;;;11.58;68.05
58771;BME280;44539;42.962;1.596;2023-01-10T13:10:14;97839.47;;;11.61;68.92
58771;BME280;44539;42.962;1.596;2023-01-10T13:12:43;97836.63;;;11.55;67.77
58771;BME280;44539;42.962;1.596;2023-01-10T13:17:47;97832.16;;;11.88;65.02
58771;BME280;44539;42.962;1.596;2023-01-10T13:22:49;97834.53;;;12.72;64.04
58771;BME280;44539;42.962;1.596;2023-01-10T13:25:32;97829.03;;;13.13;59.41
58771;BME280;44539;42.962;1.596;2023-01-10T13:28:07;97821.63;;;13.54;57.16
58771;BME280;44539;42.962;1.596;2023-01-10T13:30:39;97817.81;;;13.72;58.95
58771;BME280;44539;42.962;1.596;2023-01-10T13:33:17;97816.16;;;13.94;59.51
58771;BME280;44539;42.962;1.596;2023-01-10T13:35:45;97817.41;;;14.21;57.77
58771;BME280;44539;42.962;1.596;2023-01-10T13:41:13;97818.91;;;14.98;54.03
58771;BME280;44539;42.962;1.596;2023-01-10T13:51:26;97825.69;;;15.88;50.82
58771;BME280;44539;42.962;1.596;2023-01-10T13:56:40;97837.34;;;16.02;47.71
58771;BME280;44539;42.962;1.596;2023-01-10T14:02:13;97822.88;;;16.87;50.72
58771;BME280;44539;42.962;1.596;2023-01-10T14:05:01;97815.94;;;16.65;48.52
58771;BME280;44539;42.962;1.596;2023-01-10T14:07:49;97819.25;;;17.08;48.96
58771;BME280;44539;42.962;1.596;2023-01-10T14:10:21;97820.75;;;16.76;46.84
58771;BME280;44539;42.962;1.596;2023-01-10T14:17:55;97818.28;;;17.16;46.96
58771;BME280;44539;42.962;1.596;2023-01-10T14:20:22;97821.47;;;17.46;48.59
58771;BME280;44539;42.962;1.596;2023-01-10T14:25:41;97821.09;;;17.56;49.36
58771;BME280;44539;42.962;1.596;2023-01-10T14:28:38;97813.09;;;17.83;48.03
58771;BME280;44539;42.962;1.596;2023-01-10T14:31:14;97820.31;;;18.15;46.11
58771;BME280;44539;42.962;1.596;2023-01-10T14:33:43;97816.41;;;18.31;41.85
58771;BME280;44539;42.962;1.596;2023-01-10T14:36:15;97810.81;;;18.13;41.26
58771;BME280;44539;42.962;1.596;2023-01-10T14:38:43;97812.47;;;18.27;43.24
58771;BME280;44539;42.962;1.596;2023-01-10T14:41:19;97805.13;;;18.74;43.41
58771;BME280;44539;42.962;1.596;2023-01-10T14:43:53;97808.19;;;19.43;39.71
58771;BME280;44539;42.962;1.596;2023-01-10T14:46:23;97804.31;;;19.71;39.79
58771;BME280;44539;42.962;1.596;2023-01-10T14:48:51;97805.50;;;19.82;39.08
58771;BME280;44539;42.962;1.596;2023-01-10T14:51:30;97805.97;;;20.04;39.76
58771;BME280;44539;42.962;1.596;2023-01-10T14:54:09;97807.34;;;20.13;41.33
58771;BME280;44539;42.962;1.596;2023-01-10T14:56:41;97806.00;;;19.72;40.63
58771;BME280;44539;42.962;1.596;2023-01-10T14:59:23;97805.22;;;19.58;42.77
58771;BME280;44539;42.962;1.596;2023-01-10T15:01:51;97798.13;;;19.64;43.33
58771;BME280;44539;42.962;1.596;2023-01-10T15:04:19;97801.44;;;19.66;42.09
58771;BME280;44539;42.962;1.596;2023-01-10T15:06:54;97809.00;;;19.44;41.96
58771;BME280;44539;42.962;1.596;2023-01-10T15:09:20;97802.44;;;19.40;41.09
58771;BME280;44539;42.962;1.596;2023-01-10T15:11:48;97795.38;;;19.38;40.65
58771;BME280;44539;42.962;1.596;2023-01-10T15:14:16;97796.16;;;19.46;41.19
58771;BME280;44539;42.962;1.596;2023-01-10T15:16:44;97805.56;;;18.71;42.61
58771;BME280;44539;42.962;1.596;2023-01-10T15:19:15;97797.75;;;18.36;44.47
58771;BME280;44539;42.962;1.596;2023-01-10T15:21:43;97794.47;;;18.21;44.59
58771;BME280;44539;42.962;1.596;2023-01-10T15:24:34;97802.34;;;17.08;47.58
58771;BME280;44539;42.962;1.596;2023-01-10T15:27:12;97809.88;;;15.71;52.63
58771;BME280;44539;42.962;1.596;2023-01-10T15:29:39;97809.94;;;16.06;50.08
58771;BME280;44539;42.962;1.596;2023-01-10T15:32:19;97810.84;;;16.13;50.16
58771;BME280;44539;42.962;1.596;2023-01-10T15:34:48;97807.72;;;16.38;49.40
58771;BME280;44539;42.962;1.596;2023-01-10T15:37:23;97803.63;;;16.42;50.04
58771;BME280;44539;42.962;1.596;2023-01-10T15:39:54;97801.34;;;16.39;51.89
58771;BME280;44539;42.962;1.596;2023-01-10T15:42:20;97811.63;;;16.07;51.90
58771;BME280;44539;42.962;1.596;2023-01-10T15:44:48;97810.81;;;14.76;55.54
58771;BME280;44539;42.962;1.596;2023-01-10T15:50:22;97825.31;;;11.69;69.47
58771;BME280;44539;42.962;1.596;2023-01-10T15:52:57;97817.75;;;10.99;77.37
58771;BME280;44539;42.962;1.596;2023-01-10T15:58:02;97811.47;;;10.13;84.68
58771;BME280;44539;42.962;1.596;2023-01-10T16:00:27;97806.06;;;9.97;83.29
58771;BME280;44539;42.962;1.596;2023-01-10T16:02:54;97809.81;;;9.86;83.33
58771;BME280;44539;42.962;1.596;2023-01-10T16:05:21;97800.00;;;9.87;81.95
58771;BME280;44539;42.962;1.596;2023-01-10T16:07:47;97799.06;;;9.16;87.51
58771;BME280;44539;42.962;1.596;2023-01-10T16:10:21;97802.25;;;8.74;92.18
58771;BME280;44539;42.962;1.596;2023-01-10T16:12:48;97798.28;;;8.60;95.01
58771;BME280;44539;42.962;1.596;2023-01-10T16:15:34;97807.97;;;8.32;98.52
58771;BME280;44539;42.962;1.596;2023-01-10T16:18:00;97803.31;;;8.16;98.10
58771;BME280;44539;42.962;1.596;2023-01-10T16:20:32;97815.75;;;7.86;100.00
58771;BME280;44539;42.962;1.596;2023-01-10T16:22:59;97811.41;;;7.95;100.00
58771;BME280;44539;42.962;1.596;2023-01-10T16:25:32;97810.19;;;7.80;100.00
58771;BME280;44539;42.962;1.596;2023-01-10T16:27:58;97813.84;;;7.69;100.00
58771;BME280;44539;42.962;1.596;2023-01-10T16:30:33;97813.00;;;7.39;100.00
58771;BME280;44539;42.962;1.596;2023-01-10T16:33:30;97809.81;;;7.35;100.00
58771;BME280;44539;42.962;1.596;2023-01-10T16:35:57;97814.69;;;7.30;100.00
58771;BME280;44539;42.962;1.596;2023-01-10T16:38:25;97812.16;;;7.09;100.00
58771;BME280;44539;42.962;1.596;2023-01-10T16:41:00;97812.16;;;7.09;100.00
58771;BME280;44539;42.962;1.596;2023-01-10T16:43:47;97814.34;;;6.94;100.00
58771;BME280;44539;42.962;1.596;2023-01-10T16:46:12;97816.78;;;6.67;100.00
58771;BME280;44539;42.962;1.596;2023-01-10T16:48:38;97818.53;;;6.57;100.00
58771;BME280;44539;42.962;1.596;2023-01-10T16:51:27;97826.03;;;6.51;100.00
58771;BME280;44539;42.962;1.596;2023-01-10T16:53:54;97820.00;;;6.40;100.00
58771;BME280;44539;42.962;1.596;2023-01-10T16:56:23;97827.06;;;6.29;100.00
58771;BME280;44539;42.962;1.596;2023-01-10T16:58:49;97827.75;;;6.31;100.00
58771;BME280;44539;42.962;1.596;2023-01-10T17:01:17;97822.03;;;6.26;100.00
58771;BME280;44539;42.962;1.596;2023-01-10T17:03:44;97823.38;;;6.21;100.00
58771;BME280;44539;42.962;1.596;2023-01-10T17:06:13;97815.13;;;6.04;100.00
58771;BME280;44539;42.962;1.596;2023-01-10T17:08:39;97830.72;;;5.75;100.00
58771;BME280;44539;42.962;1.596;2023-01-10T17:11:07;97825.38;;;5.65;100.00
58771;BME280;44539;42.962;1.596;2023-01-10T17:13:40;97826.91;;;5.47;100.00
58771;BME280;44539;42.962;1.596;2023-01-10T17:16:06;97826.13;;;5.35;100.00
58771;BME280;44539;42.962;1.596;2023-01-10T17:18:31;97838.41;;;5.46;100.00
58771;BME280;44539;42.962;1.596;2023-01-10T17:20:57;97843.81;;;5.44;100.00
58771;BME280;44539;42.962;1.596;2023-01-10T17:23:24;97844.53;;;5.46;100.00
58771;BME280;44539;42.962;1.596;2023-01-10T17:25:57;97839.06;;;5.27;100.00
58771;BME280;44539;42.962;1.596;2023-01-10T17:28:23;97845.72;;;5.10;100.00
58771;BME280;44539;42.962;1.596;2023-01-10T17:30:48;97839.63;;;4.98;100.00
58771;BME280;44539;42.962;1.596;2023-01-10T17:33:13;97846.03;;;4.84;100.00
58771;BME280;44539;42.962;1.596;2023-01-10T17:35:40;97840.25;;;4.90;100.00
58771;BME280;44539;42.962;1.596;2023-01-10T17:38:06;97836.91;;;4.77;100.00
58771;BME280;44539;42.962;1.596;2023-01-10T17:40:33;97829.44;;;4.61;100.00
58771;BME280;44539;42.962;1.596;2023-01-10T17:42:58;97828.94;;;4.67;100.00
58771;BME280;44539;42.962;1.596;2023-01-10T17:45:24;97838.50;;;4.35;100.00
58771;BME280;44539;42.962;1.596;2023-01-10T17:47:49;97845.19;;;4.39;100.00
58771;BME280;44539;42.962;1.596;2023-01-10T17:50:17;97837.53;;;4.24;100.00
58771;BME280;44539;42.962;1.596;2023-01-10T17:52:42;97841.25;;;4.22;100.00
58771;BME280;44539;42.962;1.596;2023-01-10T17:55:08;97840.88;;;4.26;100.00
58771;BME280;44539;42.962;1.596;2023-01-10T17:57:34;97833.47;;;4.09;100.00
58771;BME280;44539;42.962;1.596;2023-01-10T18:00:03;97837.16;;;4.06;100.00
58771;BME280;44539;42.962;1.596;2023-01-10T18:02:29;97841.00;;;4.02;100.00
58771;BME280;44539;42.962;1.596;2023-01-10T18:04:54;97842.91;;;4.00;100.00
58771;BME280;44539;42.962;1.596;2023-01-10T18:07:20;97845.63;;;3.99;100.00
58771;BME280;44539;42.962;1.596;2023-01-10T18:09:45;97856.75;;;4.02;100.00
58771;BME280;44539;42.962;1.596;2023-01-10T18:12:11;97853.53;;;3.99;100.00
58771;BME280;44539;42.962;1.596;2023-01-10T18:14:36;97857.84;;;4.00;100.00
58771;BME280;44539;42.962;1.596;2023-01-10T18:17:10;97856.84;;;3.89;100.00
58771;BME280;44539;42.962;1.596;2023-01-10T18:19:36;97852.56;;;3.88;100.00
58771;BME280;44539;42.962;1.596;2023-01-10T18:22:05;97860.03;;;3.71;100.00
58771;BME280;44539;42.962;1.596;2023-01-10T18:24:53;97861.00;;;3.70;100.00
58771;BME280;44539;42.962;1.596;2023-01-10T18:27:22;97865.97;;;3.61;100.00
58771;BME280;44539;42.962;1.596;2023-01-10T18:29:49;97864.03;;;3.52;100.00
58771;BME280;44539;42.962;1.596;2023-01-10T18:32:15;97861.97;;;3.44;100.00
58771;BME280;44539;42.962;1.596;2023-01-10T18:34:41;97869.88;;;3.56;100.00
58771;BME280;44539;42.962;1.596;2023-01-10T18:37:06;97867.16;;;3.57;100.00
58771;BME280;44539;42.962;1.596;2023-01-10T18:39:32;97866.47;;;3.66;100.00
58771;BME280;44539;42.962;1.596;2023-01-10T18:41:57;97869.22;;;3.65;100.00
58771;BME280;44539;42.962;1.596;2023-01-10T18:44:22;97867.88;;;3.59;100.00
58771;BME280;44539;42.962;1.596;2023-01-10T18:46:48;97872.41;;;3.57;100.00
58771;BME280;44539;42.962;1.596;2023-01-10T18:49:13;97867.56;;;3.40;100.00
58771;BME280;44539;42.962;1.596;2023-01-10T18:51:39;97874.44;;;3.30;100.00
58771;BME280;44539;42.962;1.596;2023-01-10T18:54:04;97872.44;;;3.33;100.00
58771;BME280;44539;42.962;1.596;2023-01-10T18:56:31;97871.38;;;3.36;100.00
58771;BME280;44539;42.962;1.596;2023-01-10T18:58:56;97873.66;;;3.40;100.00
58771;BME280;44539;42.962;1.596;2023-01-10T19:01:23;97874.09;;;3.34;100.00
58771;BME280;44539;42.962;1.596;2023-01-10T19:03:48;97871.31;;;3.24;100.00
58771;BME280;44539;42.962;1.596;2023-01-10T19:06:17;97876.88;;;3.20;100.00
58771;BME280;44539;42.962;1.596;2023-01-10T19:08:44;97876.47;;;3.13;100.00
58771;BME280;44539;42.962;1.596;2023-01-10T19:11:11;97880.50;;;3.06;100.00
58771;BME280;44539;42.962;1.596;2023-01-10T19:13:37;97875.25;;;3.06;100.00
58771;BME280;44539;42.962;1.596;2023-01-10T19:16:10;97874.25;;;2.96;100.00
58771;BME280;44539;42.962;1.596;2023-01-10T19:18:36;97874.19;;;2.84;100.00
58771;BME280;44539;42.962;1.596;2023-01-10T19:21:01;97872.38;;;2.85;100.00
58771;BME280;44539;42.962;1.596;2023-01-10T19:23:27;97870.59;;;2.85;100.00
58771;BME280;44539;42.962;1.596;2023-01-10T19:25:57;97877.69;;;2.96;100.00
58771;BME280;44539;42.962;1.596;2023-01-10T19:28:22;97860.44;;;2.81;100.00
58771;BME280;44539;42.962;1.596;2023-01-10T19:30:51;97871.88;;;2.80;100.00
58771;BME280;44539;42.962;1.596;2023-01-10T19:33:17;97866.25;;;2.73;100.00
58771;BME280;44539;42.962;1.596;2023-01-10T19:35:43;97868.84;;;2.73;100.00
58771;BME280;44539;42.962;1.596;2023-01-10T19:38:08;97874.72;;;2.64;100.00
58771;BME280;44539;42.962;1.596;2023-01-10T19:40:34;97877.16;;;2.67;100.00
58771;BME280;44539;42.962;1.596;2023-01-10T19:42:59;97873.81;;;2.65;100.00
58771;BME280;44539;42.962;1.596;2023-01-10T19:45:26;97870.88;;;2.57;100.00
58771;BME280;44539;42.962;1.596;2023-01-10T19:47:51;97866.13;;;2.62;100.00
58771;BME280;44539;42.962;1.596;2023-01-10T19:50:17;97873.81;;;2.65;100.00
58771;BME280;44539;42.962;1.596;2023-01-10T19:52:42;97868.13;;;2.71;100.00
58771;BME280;44539;42.962;1.596;2023-01-10T19:55:11;97864.47;;;2.61;100.00
58771;BME280;44539;42.962;1.596;2023-01-10T19:57:36;97870.97;;;2.55;100.00
58771;BME280;44539;42.962;1.596;2023-01-10T20:00:03;97870.53;;;2.61;100.00
58771;BME280;44539;42.962;1.596;2023-01-10T20:02:29;97868.28;;;2.44;100.00
58771;BME280;44539;42.962;1.596;2023-01-10T20:04:55;97870.47;;;2.50;100.00
58771;BME280;44539;42.962;1.596;2023-01-10T20:07:20;97875.41;;;2.42;100.00
58771;BME280;44539;42.962;1.596;2023-01-10T20:09:46;97872.03;;;2.40;100.00
58771;BME280;44539;42.962;1.596;2023-01-10T20:12:11;97867.88;;;2.37;100.00
58771;BME280;44539;42.962;1.596;2023-01-10T20:14:38;97872.78;;;2.29;100.00
58771;BME280;44539;42.962;1.596;2023-01-10T20:17:04;97862.94;;;2.33;100.00
58771;BME280;44539;42.962;1.596;2023-01-10T20:19:31;97864.84;;;2.31;100.00
58771;BME280;44539;42.962;1.596;2023-01-10T20:21:57;97860.19;;;2.47;100.00
58771;BME280;44539;42.962;1.596;2023-01-10T20:24:22;97861.56;;;2.40;100.00
58771;BME280;44539;42.962;1.596;2023-01-10T20:26:49;97864.69;;;2.32;100.00
58771;BME280;44539;42.962;1.596;2023-01-10T20:29:16;97859.16;;;2.24;100.00
58771;BME280;44539;42.962;1.596;2023-01-10T20:31:42;97864.50;;;2.22;100.00
58771;BME280;44539;42.962;1.596;2023-01-10T20:34:10;97874.16;;;2.09;100.00
58771;BME280;44539;42.962;1.596;2023-01-10T20:36:36;97864.09;;;2.03;100.00
58771;BME280;44539;42.962;1.596;2023-01-10T20:39:02;97875.91;;;1.96;100.00
58771;BME280;44539;42.962;1.596;2023-01-10T20:41:29;97867.31;;;1.94;100.00
58771;BME280;44539;42.962;1.596;2023-01-10T20:43:55;97857.47;;;1.97;100.00
58771;BME280;44539;42.962;1.596;2023-01-10T20:46:29;97854.53;;;2.02;100.00
58771;BME280;44539;42.962;1.596;2023-01-10T20:48:57;97857.81;;;1.93;100.00
58771;BME280;44539;42.962;1.596;2023-01-10T20:51:28;97839.16;;;1.97;100.00
58771;BME280;44539;42.962;1.596;2023-01-10T20:53:54;97844.59;;;1.81;100.00
58771;BME280;44539;42.962;1.596;2023-01-10T20:56:22;97841.34;;;1.91;100.00
58771;BME280;44539;42.962;1.596;2023-01-10T20:58:48;97841.44;;;1.76;100.00
58771;BME280;44539;42.962;1.596;2023-01-10T21:01:14;97846.16;;;1.71;100.00
58771;BME280;44539;42.962;1.596;2023-01-10T21:03:41;97848.44;;;1.63;100.00
58771;BME280;44539;42.962;1.596;2023-01-10T21:06:07;97844.69;;;1.67;100.00
58771;BME280;44539;42.962;1.596;2023-01-10T21:08:32;97853.28;;;1.69;100.00
58771;BME280;44539;42.962;1.596;2023-01-10T21:10:58;97846.75;;;1.75;100.00
58771;BME280;44539;42.962;1.596;2023-01-10T21:13:23;97837.66;;;1.80;100.00
58771;BME280;44539;42.962;1.596;2023-01-10T21:15:52;97840.50;;;1.77;100.00
58771;BME280;44539;42.962;1.596;2023-01-10T21:18:19;97845.28;;;1.71;100.00
58771;BME280;44539;42.962;1.596;2023-01-10T21:20:51;97846.16;;;1.84;100.00
58771;BME280;44539;42.962;1.596;2023-01-10T21:23:17;97847.91;;;1.71;100.00
58771;BME280;44539;42.962;1.596;2023-01-10T21:25:44;97858.09;;;1.75;100.00
58771;BME280;44539;42.962;1.596;2023-01-10T21:28:10;97854.91;;;1.57;100.00
58771;BME280;44539;42.962;1.596;2023-01-10T21:30:36;97858.91;;;1.63;100.00
58771;BME280;44539;42.962;1.596;2023-01-10T21:33:02;97851.56;;;1.55;100.00
58771;BME280;44539;42.962;1.596;2023-01-10T21:35:27;97850.94;;;1.52;100.00
58771;BME280;44539;42.962;1.596;2023-01-10T21:37:53;97852.19;;;1.59;100.00
58771;BME280;44539;42.962;1.596;2023-01-10T21:40:20;97850.03;;;1.78;100.00
58771;BME280;44539;42.962;1.596;2023-01-10T21:42:45;97850.97;;;1.77;100.00
58771;BME280;44539;42.962;1.596;2023-01-10T21:45:11;97843.19;;;1.63;100.00
58771;BME280;44539;42.962;1.596;2023-01-10T21:47:37;97842.97;;;1.53;100.00
58771;BME280;44539;42.962;1.596;2023-01-10T21:50:08;97846.53;;;1.52;100.00
58771;BME280;44539;42.962;1.596;2023-01-10T21:52:34;97838.06;;;1.61;100.00
58771;BME280;44539;42.962;1.596;2023-01-10T21:55:00;97849.91;;;1.67;100.00
58771;BME280;44539;42.962;1.596;2023-01-10T21:57:26;97835.88;;;1.81;100.00
58771;BME280;44539;42.962;1.596;2023-01-10T21:59:52;97838.47;;;1.68;100.00
58771;BME280;44539;42.962;1.596;2023-01-10T22:02:19;97834.50;;;1.62;100.00
58771;BME280;44539;42.962;1.596;2023-01-10T22:04:46;97828.00;;;1.55;100.00
58771;BME280;44539;42.962;1.596;2023-01-10T22:07:15;97829.50;;;1.32;100.00
58771;BME280;44539;42.962;1.596;2023-01-10T22:09:40;97827.06;;;1.16;100.00
58771;BME280;44539;42.962;1.596;2023-01-10T22:12:06;97838.06;;;1.21;100.00
58771;BME280;44539;42.962;1.596;2023-01-10T22:14:31;97845.69;;;1.39;100.00
58771;BME280;44539;42.962;1.596;2023-01-10T22:16:57;97843.28;;;1.61;100.00